sensor_id;sensor_type;location;lat;lon;timestamp;P1;durP1;ratioP1;P2;durP2;ratioP2
29466;SDS011;60968;37.490;-122.288;2023-05-10T00:01:28;2.70;;;0.60;;
29466;SDS011;60968;37.490;-122.288;2023-05-10T00:04:30;3.97;;;0.80;;
29466;SDS011;60968;37.490;-122.288;2023-05-10T00:07:30;1.90;;;0.47;;
29466;SDS011;60968;37.490;-122.288;2023-05-10T00:10:31;1.33;;;0.53;;
29466;SDS011;60968;37.490;-122.288;2023-05-10T00:13:32;1.23;;;0.70;;
29466;SDS011;60968;37.490;-122.288;2023-05-10T00:16:33;3.23;;;0.60;;
29466;SDS011;60968;37.490;-122.288;2023-05-10T00:19:36;1.30;;;0.40;;
29466;SDS011;60968;37.490;-122.288;2023-05-10T00:22:37;2.93;;;0.80;;
29466;SDS011;60968;37.490;-122.288;2023-05-10T00:25:37;5.93;;;0.97;;
29466;SDS011;60968;37.490;-122.288;2023-05-10T00:28:38;2.77;;;0.63;;
29466;SDS011;60968;37.490;-122.288;2023-05-10T00:31:39;3.33;;;0.60;;
29466;SDS011;60968;37.490;-122.288;2023-05-10T00:34:40;1.80;;;0.70;;
29466;SDS011;60968;37.490;-122.288;2023-05-10T00:37:41;2.33;;;0.70;;
29466;SDS011;60968;37.490;-122.288;2023-05-10T00:40:42;1.40;;;0.60;;
29466;SDS011;60968;37.490;-122.288;2023-05-10T00:43:43;6.83;;;0.90;;
29466;SDS011;60968;37.490;-122.288;2023-05-10T00:46:44;4.13;;;0.87;;
29466;SDS011;60968;37.490;-122.288;2023-05-10T00:49:47;3.30;;;0.73;;
29466;SDS011;60968;37.490;-122.288;2023-05-10T00:52:48;3.67;;;0.70;;
29466;SDS011;60968;37.490;-122.288;2023-05-10T00:55:50;5.10;;;1.00;;
29466;SDS011;60968;37.490;-122.288;2023-05-10T00:58:51;4.00;;;0.73;;
29466;SDS011;60968;37.490;-122.288;2023-05-10T01:01:52;4.47;;;1.20;;
29466;SDS011;60968;37.490;-122.288;2023-05-10T01:04:53;3.73;;;0.77;;
29466;SDS011;60968;37.490;-122.288;2023-05-10T01:07:56;2.87;;;0.60;;
29466;SDS011;60968;37.490;-122.288;2023-05-10T01:10:57;3.07;;;0.77;;
29466;SDS011;60968;37.490;-122.288;2023-05-10T01:13:58;4.90;;;1.20;;
29466;SDS011;60968;37.490;-122.288;2023-05-10T01:17:02;5.13;;;0.80;;
29466;SDS011;60968;37.490;-122.288;2023-05-10T01:20:06;5.30;;;0.70;;
29466;SDS011;60968;37.490;-122.288;2023-05-10T01:26:37;4.20;;;0.90;;
29466;SDS011;60968;37.490;-122.288;2023-05-10T01:36:48;2.37;;;0.70;;
29466;SDS011;60968;37.490;-122.288;2023-05-10T01:39:58;3.73;;;1.20;;
29466;SDS011;60968;37.490;-122.288;2023-05-10T01:43:08;1.87;;;0.80;;
29466;SDS011;60968;37.490;-122.288;2023-05-10T01:46:17;2.97;;;0.63;;
29466;SDS011;60968;37.490;-122.288;2023-05-10T01:49:29;2.23;;;0.60;;
29466;SDS011;60968;37.490;-122.288;2023-05-10T01:52:40;2.23;;;0.80;;
29466;SDS011;60968;37.490;-122.288;2023-05-10T01:55:43;6.07;;;0.80;;
29466;SDS011;60968;37.490;-122.288;2023-05-10T01:58:54;3.33;;;0.70;;
29466;SDS011;60968;37.490;-122.288;2023-05-10T02:01:57;2.20;;;0.77;;
29466;SDS011;60968;37.490;-122.288;2023-05-10T02:04:59;3.50;;;0.67;;
29466;SDS011;60968;37.490;-122.288;2023-05-10T02:08:00;5.93;;;0.90;;
29466;SDS011;60968;37.490;-122.288;2023-05-10T02:11:03;7.57;;;0.90;;
29466;SDS011;60968;37.490;-122.288;2023-05-10T02:14:08;4.97;;;0.80;;
29466;SDS011;60968;37.490;-122.288;2023-05-10T02:17:12;4.00;;;0.90;;
29466;SDS011;60968;37.490;-122.288;2023-05-10T02:20:14;4.53;;;0.77;;
29466;SDS011;60968;37.490;-122.288;2023-05-10T02:23:18;7.10;;;0.77;;
29466;SDS011;60968;37.490;-122.288;2023-05-10T02:26:20;4.73;;;1.10;;
29466;SDS011;60968;37.490;-122.288;2023-05-10T02:29:24;6.57;;;1.00;;
29466;SDS011;60968;37.490;-122.288;2023-05-10T02:32:27;2.07;;;0.70;;
29466;SDS011;60968;37.490;-122.288;2023-05-10T02:35:28;3.80;;;0.70;;
29466;SDS011;60968;37.490;-122.288;2023-05-10T02:38:31;4.60;;;1.17;;
29466;SDS011;60968;37.490;-122.288;2023-05-10T02:41:35;5.93;;;1.30;;
29466;SDS011;60968;37.490;-122.288;2023-05-10T02:44:38;4.30;;;0.80;;
29466;SDS011;60968;37.490;-122.288;2023-05-10T02:47:41;2.53;;;0.80;;
29466;SDS011;60968;37.490;-122.288;2023-05-10T02:50:43;4.97;;;0.60;;
29466;SDS011;60968;37.490;-122.288;2023-05-10T02:53:45;6.03;;;0.73;;
29466;SDS011;60968;37.490;-122.288;2023-05-10T02:56:53;4.50;;;0.80;;
29466;SDS011;60968;37.490;-122.288;2023-05-10T02:59:58;1.70;;;0.80;;
29466;SDS011;60968;37.490;-122.288;2023-05-10T03:02:59;4.07;;;0.70;;
29466;SDS011;60968;37.490;-122.288;2023-05-10T03:06:00;7.47;;;1.10;;
29466;SDS011;60968;37.490;-122.288;2023-05-10T03:09:01;3.93;;;0.77;;
29466;SDS011;60968;37.490;-122.288;2023-05-10T03:15:17;6.60;;;0.83;;
29466;SDS011;60968;37.490;-122.288;2023-05-10T03:18:21;2.97;;;0.90;;
29466;SDS011;60968;37.490;-122.288;2023-05-10T03:21:28;4.33;;;0.60;;
29466;SDS011;60968;37.490;-122.288;2023-05-10T03:24:31;4.03;;;1.00;;
29466;SDS011;60968;37.490;-122.288;2023-05-10T03:27:35;4.17;;;0.93;;
29466;SDS011;60968;37.490;-122.288;2023-05-10T03:30:39;5.03;;;1.30;;
29466;SDS011;60968;37.490;-122.288;2023-05-10T03:33:48;6.80;;;0.97;;
29466;SDS011;60968;37.490;-122.288;2023-05-10T03:36:49;2.90;;;0.80;;
29466;SDS011;60968;37.490;-122.288;2023-05-10T03:39:50;6.87;;;1.37;;
29466;SDS011;60968;37.490;-122.288;2023-05-10T03:42:51;2.93;;;0.87;;
29466;SDS011;60968;37.490;-122.288;2023-05-10T03:45:53;4.63;;;1.17;;
29466;SDS011;60968;37.490;-122.288;2023-05-10T03:48:55;7.10;;;0.93;;
29466;SDS011;60968;37.490;-122.288;2023-05-10T03:51:56;3.20;;;0.97;;
29466;SDS011;60968;37.490;-122.288;2023-05-10T03:54:58;2.77;;;0.83;;
29466;SDS011;60968;37.490;-122.288;2023-05-10T03:58:01;4.60;;;0.87;;
29466;SDS011;60968;37.490;-122.288;2023-05-10T04:01:02;3.00;;;0.90;;
29466;SDS011;60968;37.490;-122.288;2023-05-10T04:04:03;4.03;;;1.10;;
29466;SDS011;60968;37.490;-122.288;2023-05-10T04:07:04;10.00;;;1.43;;
29466;SDS011;60968;37.490;-122.288;2023-05-10T04:10:05;2.70;;;1.00;;
29466;SDS011;60968;37.490;-122.288;2023-05-10T04:13:06;5.77;;;1.17;;
29466;SDS011;60968;37.490;-122.288;2023-05-10T04:16:07;6.53;;;0.90;;
29466;SDS011;60968;37.490;-122.288;2023-05-10T04:19:08;2.97;;;0.77;;
29466;SDS011;60968;37.490;-122.288;2023-05-10T04:22:09;5.70;;;1.30;;
29466;SDS011;60968;37.490;-122.288;2023-05-10T04:25:09;3.83;;;0.80;;
29466;SDS011;60968;37.490;-122.288;2023-05-10T04:28:10;6.40;;;0.90;;
29466;SDS011;60968;37.490;-122.288;2023-05-10T04:31:13;6.83;;;1.10;;
29466;SDS011;60968;37.490;-122.288;2023-05-10T04:34:14;13.80;;;1.40;;
29466;SDS011;60968;37.490;-122.288;2023-05-10T04:37:15;4.23;;;1.00;;
29466;SDS011;60968;37.490;-122.288;2023-05-10T04:40:15;5.67;;;1.30;;
29466;SDS011;60968;37.490;-122.288;2023-05-10T04:43:16;8.03;;;1.40;;
29466;SDS011;60968;37.490;-122.288;2023-05-10T04:46:17;8.30;;;1.60;;
29466;SDS011;60968;37.490;-122.288;2023-05-10T04:49:18;4.17;;;1.23;;
29466;SDS011;60968;37.490;-122.288;2023-05-10T04:52:19;3.97;;;1.50;;
29466;SDS011;60968;37.490;-122.288;2023-05-10T04:55:20;5.93;;;1.00;;
29466;SDS011;60968;37.490;-122.288;2023-05-10T04:58:20;11.00;;;1.67;;
29466;SDS011;60968;37.490;-122.288;2023-05-10T05:01:21;4.57;;;0.90;;
29466;SDS011;60968;37.490;-122.288;2023-05-10T05:04:22;11.73;;;1.57;;
29466;SDS011;60968;37.490;-122.288;2023-05-10T05:07:23;11.30;;;1.50;;
29466;SDS011;60968;37.490;-122.288;2023-05-10T05:10:24;4.93;;;1.10;;
29466;SDS011;60968;37.490;-122.288;2023-05-10T05:13:25;5.93;;;1.50;;
29466;SDS011;60968;37.490;-122.288;2023-05-10T05:16:26;9.13;;;1.60;;
29466;SDS011;60968;37.490;-122.288;2023-05-10T05:19:27;7.80;;;1.30;;
29466;SDS011;60968;37.490;-122.288;2023-05-10T05:22:29;5.37;;;1.30;;
29466;SDS011;60968;37.490;-122.288;2023-05-10T05:25:30;7.73;;;1.53;;
29466;SDS011;60968;37.490;-122.288;2023-05-10T05:28:31;6.40;;;1.03;;
29466;SDS011;60968;37.490;-122.288;2023-05-10T05:31:32;8.20;;;1.53;;
29466;SDS011;60968;37.490;-122.288;2023-05-10T05:34:34;9.10;;;1.50;;
29466;SDS011;60968;37.490;-122.288;2023-05-10T05:37:35;8.47;;;2.07;;
29466;SDS011;60968;37.490;-122.288;2023-05-10T05:40:36;6.63;;;1.43;;
29466;SDS011;60968;37.490;-122.288;2023-05-10T05:43:37;6.83;;;1.20;;
29466;SDS011;60968;37.490;-122.288;2023-05-10T05:46:38;4.43;;;1.10;;
29466;SDS011;60968;37.490;-122.288;2023-05-10T05:49:39;5.70;;;1.47;;
29466;SDS011;60968;37.490;-122.288;2023-05-10T05:52:40;6.80;;;1.17;;
29466;SDS011;60968;37.490;-122.288;2023-05-10T05:55:50;7.37;;;1.13;;
29466;SDS011;60968;37.490;-122.288;2023-05-10T05:58:52;13.07;;;1.33;;
29466;SDS011;60968;37.490;-122.288;2023-05-10T06:01:53;8.30;;;1.63;;
29466;SDS011;60968;37.490;-122.288;2023-05-10T06:04:54;5.63;;;1.17;;
29466;SDS011;60968;37.490;-122.288;2023-05-10T06:07:56;8.50;;;1.30;;
29466;SDS011;60968;37.490;-122.288;2023-05-10T06:11:02;5.50;;;1.27;;
29466;SDS011;60968;37.490;-122.288;2023-05-10T06:14:58;5.47;;;1.10;;
29466;SDS011;60968;37.490;-122.288;2023-05-10T06:17:59;4.70;;;1.23;;
29466;SDS011;60968;37.490;-122.288;2023-05-10T06:20:59;6.60;;;1.40;;
29466;SDS011;60968;37.490;-122.288;2023-05-10T06:24:00;14.10;;;1.83;;
29466;SDS011;60968;37.490;-122.288;2023-05-10T06:27:01;5.07;;;0.90;;
29466;SDS011;60968;37.490;-122.288;2023-05-10T06:30:02;5.23;;;1.33;;
29466;SDS011;60968;37.490;-122.288;2023-05-10T06:33:03;3.37;;;1.03;;
29466;SDS011;60968;37.490;-122.288;2023-05-10T06:36:05;5.83;;;1.23;;
29466;SDS011;60968;37.490;-122.288;2023-05-10T06:39:05;2.80;;;0.90;;
29466;SDS011;60968;37.490;-122.288;2023-05-10T06:42:06;4.60;;;1.10;;
29466;SDS011;60968;37.490;-122.288;2023-05-10T06:45:08;7.73;;;1.73;;
29466;SDS011;60968;37.490;-122.288;2023-05-10T06:48:09;6.70;;;1.47;;
29466;SDS011;60968;37.490;-122.288;2023-05-10T06:51:10;10.80;;;1.30;;
29466;SDS011;60968;37.490;-122.288;2023-05-10T06:54:11;5.87;;;1.43;;
29466;SDS011;60968;37.490;-122.288;2023-05-10T06:57:13;6.03;;;1.57;;
29466;SDS011;60968;37.490;-122.288;2023-05-10T07:00:15;8.30;;;1.27;;
29466;SDS011;60968;37.490;-122.288;2023-05-10T07:03:16;15.87;;;1.63;;
29466;SDS011;60968;37.490;-122.288;2023-05-10T07:06:17;9.10;;;1.70;;
29466;SDS011;60968;37.490;-122.288;2023-05-10T07:09:18;6.13;;;1.30;;
29466;SDS011;60968;37.490;-122.288;2023-05-10T07:12:19;12.63;;;2.00;;
29466;SDS011;60968;37.490;-122.288;2023-05-10T07:15:19;10.30;;;1.40;;
29466;SDS011;60968;37.490;-122.288;2023-05-10T07:18:21;11.70;;;1.53;;
29466;SDS011;60968;37.490;-122.288;2023-05-10T07:21:22;8.20;;;2.30;;
29466;SDS011;60968;37.490;-122.288;2023-05-10T07:24:23;7.43;;;1.67;;
29466;SDS011;60968;37.490;-122.288;2023-05-10T07:27:24;13.03;;;1.50;;
29466;SDS011;60968;37.490;-122.288;2023-05-10T07:30:25;10.33;;;1.90;;
29466;SDS011;60968;37.490;-122.288;2023-05-10T07:33:26;13.53;;;2.30;;
29466;SDS011;60968;37.490;-122.288;2023-05-10T07:36:28;11.10;;;1.70;;
29466;SDS011;60968;37.490;-122.288;2023-05-10T07:39:29;9.70;;;1.77;;
29466;SDS011;60968;37.490;-122.288;2023-05-10T07:42:30;8.30;;;1.97;;
29466;SDS011;60968;37.490;-122.288;2023-05-10T07:45:30;16.30;;;1.93;;
29466;SDS011;60968;37.490;-122.288;2023-05-10T07:48:31;10.73;;;1.73;;
29466;SDS011;60968;37.490;-122.288;2023-05-10T07:51:34;7.20;;;1.87;;
29466;SDS011;60968;37.490;-122.288;2023-05-10T07:54:34;8.97;;;1.37;;
29466;SDS011;60968;37.490;-122.288;2023-05-10T07:57:35;10.23;;;1.93;;
29466;SDS011;60968;37.490;-122.288;2023-05-10T08:00:36;12.80;;;2.23;;
29466;SDS011;60968;37.490;-122.288;2023-05-10T08:03:39;8.03;;;1.80;;
29466;SDS011;60968;37.490;-122.288;2023-05-10T08:06:40;13.47;;;2.30;;
29466;SDS011;60968;37.490;-122.288;2023-05-10T08:09:41;15.37;;;2.33;;
29466;SDS011;60968;37.490;-122.288;2023-05-10T08:12:42;13.10;;;2.23;;
29466;SDS011;60968;37.490;-122.288;2023-05-10T08:15:43;11.23;;;1.50;;
29466;SDS011;60968;37.490;-122.288;2023-05-10T08:18:44;8.47;;;1.53;;
29466;SDS011;60968;37.490;-122.288;2023-05-10T08:21:45;14.57;;;1.97;;
29466;SDS011;60968;37.490;-122.288;2023-05-10T08:24:46;15.00;;;2.00;;
29466;SDS011;60968;37.490;-122.288;2023-05-10T08:27:49;6.70;;;1.70;;
29466;SDS011;60968;37.490;-122.288;2023-05-10T08:30:50;11.43;;;2.10;;
29466;SDS011;60968;37.490;-122.288;2023-05-10T08:33:52;8.43;;;1.87;;
29466;SDS011;60968;37.490;-122.288;2023-05-10T08:36:53;14.30;;;2.37;;
29466;SDS011;60968;37.490;-122.288;2023-05-10T08:39:54;9.77;;;1.60;;
29466;SDS011;60968;37.490;-122.288;2023-05-10T08:43:28;13.17;;;1.97;;
29466;SDS011;60968;37.490;-122.288;2023-05-10T08:46:22;12.63;;;2.13;;
29466;SDS011;60968;37.490;-122.288;2023-05-10T08:49:23;11.60;;;1.93;;
29466;SDS011;60968;37.490;-122.288;2023-05-10T08:52:27;14.07;;;2.50;;
29466;SDS011;60968;37.490;-122.288;2023-05-10T08:55:30;8.73;;;1.80;;
29466;SDS011;60968;37.490;-122.288;2023-05-10T08:58:32;9.10;;;1.47;;
29466;SDS011;60968;37.490;-122.288;2023-05-10T09:01:33;17.70;;;2.80;;
29466;SDS011;60968;37.490;-122.288;2023-05-10T09:04:37;13.60;;;2.40;;
29466;SDS011;60968;37.490;-122.288;2023-05-10T09:07:38;13.97;;;2.30;;
29466;SDS011;60968;37.490;-122.288;2023-05-10T09:10:39;12.97;;;1.93;;
29466;SDS011;60968;37.490;-122.288;2023-05-10T09:13:41;8.93;;;2.20;;
29466;SDS011;60968;37.490;-122.288;2023-05-10T09:16:43;9.70;;;2.30;;
29466;SDS011;60968;37.490;-122.288;2023-05-10T09:19:44;13.27;;;2.47;;
29466;SDS011;60968;37.490;-122.288;2023-05-10T09:22:45;14.03;;;2.00;;
29466;SDS011;60968;37.490;-122.288;2023-05-10T09:25:46;19.17;;;2.97;;
29466;SDS011;60968;37.490;-122.288;2023-05-10T09:28:59;11.93;;;2.70;;
29466;SDS011;60968;37.490;-122.288;2023-05-10T09:32:01;18.40;;;2.27;;
29466;SDS011;60968;37.490;-122.288;2023-05-10T09:35:14;10.20;;;2.60;;
29466;SDS011;60968;37.490;-122.288;2023-05-10T09:38:21;11.37;;;1.70;;
29466;SDS011;60968;37.490;-122.288;2023-05-10T09:41:22;14.40;;;2.10;;
29466;SDS011;60968;37.490;-122.288;2023-05-10T09:44:26;8.23;;;1.77;;
29466;SDS011;60968;37.490;-122.288;2023-05-10T09:47:27;10.60;;;1.80;;
29466;SDS011;60968;37.490;-122.288;2023-05-10T09:50:28;9.73;;;2.43;;
29466;SDS011;60968;37.490;-122.288;2023-05-10T09:53:30;8.60;;;2.37;;
29466;SDS011;60968;37.490;-122.288;2023-05-10T09:56:34;16.37;;;2.60;;
29466;SDS011;60968;37.490;-122.288;2023-05-10T09:59:36;16.63;;;2.27;;
29466;SDS011;60968;37.490;-122.288;2023-05-10T10:02:44;15.57;;;2.30;;
29466;SDS011;60968;37.490;-122.288;2023-05-10T10:05:46;15.70;;;2.10;;
29466;SDS011;60968;37.490;-122.288;2023-05-10T10:08:48;13.60;;;2.70;;
29466;SDS011;60968;37.490;-122.288;2023-05-10T10:11:49;9.30;;;1.70;;
29466;SDS011;60968;37.490;-122.288;2023-05-10T10:14:50;15.70;;;2.70;;
29466;SDS011;60968;37.490;-122.288;2023-05-10T10:17:52;9.47;;;2.33;;
29466;SDS011;60968;37.490;-122.288;2023-05-10T10:20:54;12.33;;;2.00;;
29466;SDS011;60968;37.490;-122.288;2023-05-10T10:23:56;19.83;;;2.50;;
29466;SDS011;60968;37.490;-122.288;2023-05-10T10:36:56;8.83;;;1.80;;
29466;SDS011;60968;37.490;-122.288;2023-05-10T10:39:57;12.17;;;2.20;;
29466;SDS011;60968;37.490;-122.288;2023-05-10T10:43:20;11.77;;;2.27;;
29466;SDS011;60968;37.490;-122.288;2023-05-10T10:46:23;9.17;;;1.97;;
29466;SDS011;60968;37.490;-122.288;2023-05-10T10:49:24;17.60;;;2.57;;
29466;SDS011;60968;37.490;-122.288;2023-05-10T10:52:26;17.63;;;2.53;;
29466;SDS011;60968;37.490;-122.288;2023-05-10T10:55:46;13.10;;;1.97;;
29466;SDS011;60968;37.490;-122.288;2023-05-10T10:58:51;10.33;;;1.73;;
29466;SDS011;60968;37.490;-122.288;2023-05-10T11:01:52;8.80;;;2.03;;
29466;SDS011;60968;37.490;-122.288;2023-05-10T11:04:54;11.03;;;2.50;;
29466;SDS011;60968;37.490;-122.288;2023-05-10T11:07:56;11.60;;;2.30;;
29466;SDS011;60968;37.490;-122.288;2023-05-10T11:14:05;11.23;;;2.50;;
29466;SDS011;60968;37.490;-122.288;2023-05-10T11:20:49;12.97;;;2.07;;
29466;SDS011;60968;37.490;-122.288;2023-05-10T11:23:52;12.77;;;2.07;;
29466;SDS011;60968;37.490;-122.288;2023-05-10T11:26:54;12.50;;;2.43;;
29466;SDS011;60968;37.490;-122.288;2023-05-10T11:29:56;11.40;;;2.10;;
29466;SDS011;60968;37.490;-122.288;2023-05-10T11:32:57;17.70;;;3.00;;
29466;SDS011;60968;37.490;-122.288;2023-05-10T11:35:58;10.23;;;1.73;;
29466;SDS011;60968;37.490;-122.288;2023-05-10T11:38:59;11.80;;;2.10;;
29466;SDS011;60968;37.490;-122.288;2023-05-10T11:42:00;17.00;;;2.47;;
29466;SDS011;60968;37.490;-122.288;2023-05-10T11:45:02;10.20;;;2.07;;
29466;SDS011;60968;37.490;-122.288;2023-05-10T11:48:05;14.23;;;2.10;;
29466;SDS011;60968;37.490;-122.288;2023-05-10T11:51:07;11.33;;;2.07;;
29466;SDS011;60968;37.490;-122.288;2023-05-10T11:54:10;12.40;;;2.10;;
29466;SDS011;60968;37.490;-122.288;2023-05-10T11:57:11;9.50;;;2.30;;
29466;SDS011;60968;37.490;-122.288;2023-05-10T12:00:16;10.33;;;2.27;;
29466;SDS011;60968;37.490;-122.288;2023-05-10T12:03:17;10.03;;;1.97;;
29466;SDS011;60968;37.490;-122.288;2023-05-10T12:06:19;14.57;;;2.50;;
29466;SDS011;60968;37.490;-122.288;2023-05-10T12:09:20;11.67;;;2.70;;
29466;SDS011;60968;37.490;-122.288;2023-05-10T12:12:21;9.83;;;1.80;;
29466;SDS011;60968;37.490;-122.288;2023-05-10T12:15:23;11.43;;;1.63;;
29466;SDS011;60968;37.490;-122.288;2023-05-10T12:18:25;9.17;;;1.50;;
29466;SDS011;60968;37.490;-122.288;2023-05-10T12:21:27;8.60;;;2.00;;
29466;SDS011;60968;37.490;-122.288;2023-05-10T12:24:29;13.60;;;2.67;;
29466;SDS011;60968;37.490;-122.288;2023-05-10T12:27:33;10.17;;;2.10;;
29466;SDS011;60968;37.490;-122.288;2023-05-10T12:30:35;8.33;;;1.90;;
29466;SDS011;60968;37.490;-122.288;2023-05-10T12:33:41;10.77;;;2.37;;
29466;SDS011;60968;37.490;-122.288;2023-05-10T12:36:43;9.33;;;1.73;;
29466;SDS011;60968;37.490;-122.288;2023-05-10T12:39:44;5.70;;;1.70;;
29466;SDS011;60968;37.490;-122.288;2023-05-10T12:42:45;7.87;;;1.77;;
29466;SDS011;60968;37.490;-122.288;2023-05-10T12:45:46;6.60;;;1.50;;
29466;SDS011;60968;37.490;-122.288;2023-05-10T12:48:48;6.53;;;1.40;;
29466;SDS011;60968;37.490;-122.288;2023-05-10T12:51:49;9.20;;;1.80;;
29466;SDS011;60968;37.490;-122.288;2023-05-10T12:54:50;7.80;;;1.27;;
29466;SDS011;60968;37.490;-122.288;2023-05-10T12:57:51;7.37;;;1.13;;
29466;SDS011;60968;37.490;-122.288;2023-05-10T13:00:52;11.00;;;2.27;;
29466;SDS011;60968;37.490;-122.288;2023-05-10T13:03:52;5.23;;;1.47;;
29466;SDS011;60968;37.490;-122.288;2023-05-10T13:06:54;7.80;;;1.30;;
29466;SDS011;60968;37.490;-122.288;2023-05-10T13:09:55;8.07;;;1.33;;
29466;SDS011;60968;37.490;-122.288;2023-05-10T13:12:56;4.53;;;1.23;;
29466;SDS011;60968;37.490;-122.288;2023-05-10T13:15:58;10.83;;;1.50;;
29466;SDS011;60968;37.490;-122.288;2023-05-10T13:18:59;5.83;;;1.20;;
29466;SDS011;60968;37.490;-122.288;2023-05-10T13:22:00;5.73;;;1.30;;
29466;SDS011;60968;37.490;-122.288;2023-05-10T13:25:02;6.83;;;1.40;;
29466;SDS011;60968;37.490;-122.288;2023-05-10T13:28:03;8.03;;;1.60;;
29466;SDS011;60968;37.490;-122.288;2023-05-10T13:31:05;9.53;;;1.57;;
29466;SDS011;60968;37.490;-122.288;2023-05-10T13:34:05;11.13;;;1.83;;
29466;SDS011;60968;37.490;-122.288;2023-05-10T13:37:06;9.27;;;1.80;;
29466;SDS011;60968;37.490;-122.288;2023-05-10T13:40:07;12.50;;;1.70;;
29466;SDS011;60968;37.490;-122.288;2023-05-10T13:43:08;7.20;;;1.50;;
29466;SDS011;60968;37.490;-122.288;2023-05-10T13:46:12;5.87;;;1.30;;
29466;SDS011;60968;37.490;-122.288;2023-05-10T13:49:13;6.80;;;1.40;;
29466;SDS011;60968;37.490;-122.288;2023-05-10T13:52:14;7.27;;;1.27;;
29466;SDS011;60968;37.490;-122.288;2023-05-10T13:55:15;8.03;;;1.80;;
29466;SDS011;60968;37.490;-122.288;2023-05-10T13:58:16;5.97;;;1.30;;
29466;SDS011;60968;37.490;-122.288;2023-05-10T14:01:16;7.47;;;1.50;;
29466;SDS011;60968;37.490;-122.288;2023-05-10T14:04:17;6.83;;;1.17;;
29466;SDS011;60968;37.490;-122.288;2023-05-10T14:07:18;6.37;;;1.07;;
29466;SDS011;60968;37.490;-122.288;2023-05-10T14:10:19;11.07;;;1.40;;
29466;SDS011;60968;37.490;-122.288;2023-05-10T14:13:20;9.83;;;1.10;;
29466;SDS011;60968;37.490;-122.288;2023-05-10T14:16:21;3.43;;;1.20;;
29466;SDS011;60968;37.490;-122.288;2023-05-10T14:19:22;7.50;;;1.30;;
29466;SDS011;60968;37.490;-122.288;2023-05-10T14:22:23;3.40;;;0.90;;
29466;SDS011;60968;37.490;-122.288;2023-05-10T14:25:24;7.40;;;1.03;;
29466;SDS011;60968;37.490;-122.288;2023-05-10T14:28:25;3.23;;;0.90;;
29466;SDS011;60968;37.490;-122.288;2023-05-10T14:31:26;4.33;;;1.10;;
29466;SDS011;60968;37.490;-122.288;2023-05-10T14:34:28;4.83;;;1.20;;
29466;SDS011;60968;37.490;-122.288;2023-05-10T14:37:29;4.90;;;1.20;;
29466;SDS011;60968;37.490;-122.288;2023-05-10T14:40:30;6.47;;;1.07;;
29466;SDS011;60968;37.490;-122.288;2023-05-10T14:43:31;6.70;;;1.00;;
29466;SDS011;60968;37.490;-122.288;2023-05-10T14:46:31;5.10;;;1.00;;
29466;SDS011;60968;37.490;-122.288;2023-05-10T14:49:32;10.40;;;1.37;;
29466;SDS011;60968;37.490;-122.288;2023-05-10T14:52:33;7.70;;;1.40;;
29466;SDS011;60968;37.490;-122.288;2023-05-10T14:55:34;6.20;;;0.97;;
29466;SDS011;60968;37.490;-122.288;2023-05-10T14:58:35;10.27;;;2.03;;
29466;SDS011;60968;37.490;-122.288;2023-05-10T15:01:36;3.43;;;1.40;;
29466;SDS011;60968;37.490;-122.288;2023-05-10T15:04:36;6.70;;;1.10;;
29466;SDS011;60968;37.490;-122.288;2023-05-10T15:07:37;5.17;;;0.80;;
29466;SDS011;60968;37.490;-122.288;2023-05-10T15:10:38;8.17;;;1.00;;
29466;SDS011;60968;37.490;-122.288;2023-05-10T15:13:39;5.07;;;1.27;;
29466;SDS011;60968;37.490;-122.288;2023-05-10T15:16:40;8.17;;;1.67;;
29466;SDS011;60968;37.490;-122.288;2023-05-10T15:19:41;8.30;;;1.63;;
29466;SDS011;60968;37.490;-122.288;2023-05-10T15:22:42;9.00;;;1.83;;
29466;SDS011;60968;37.490;-122.288;2023-05-10T15:25:46;4.43;;;1.30;;
29466;SDS011;60968;37.490;-122.288;2023-05-10T15:28:48;7.77;;;1.70;;
29466;SDS011;60968;37.490;-122.288;2023-05-10T15:31:49;6.77;;;1.50;;
29466;SDS011;60968;37.490;-122.288;2023-05-10T15:34:51;7.87;;;1.47;;
29466;SDS011;60968;37.490;-122.288;2023-05-10T15:37:52;8.27;;;1.50;;
29466;SDS011;60968;37.490;-122.288;2023-05-10T15:40:55;11.73;;;1.87;;
29466;SDS011;60968;37.490;-122.288;2023-05-10T15:43:57;9.50;;;1.60;;
29466;SDS011;60968;37.490;-122.288;2023-05-10T15:46:59;4.37;;;1.27;;
29466;SDS011;60968;37.490;-122.288;2023-05-10T15:50:00;7.23;;;1.20;;
29466;SDS011;60968;37.490;-122.288;2023-05-10T15:53:01;11.23;;;1.53;;
29466;SDS011;60968;37.490;-122.288;2023-05-10T15:56:01;10.67;;;1.63;;
29466;SDS011;60968;37.490;-122.288;2023-05-10T15:59:04;6.80;;;1.20;;
29466;SDS011;60968;37.490;-122.288;2023-05-10T16:02:07;4.43;;;1.17;;
29466;SDS011;60968;37.490;-122.288;2023-05-10T16:05:10;4.73;;;1.20;;
29466;SDS011;60968;37.490;-122.288;2023-05-10T16:08:11;10.17;;;1.80;;
29466;SDS011;60968;37.490;-122.288;2023-05-10T16:11:12;6.93;;;1.53;;
29466;SDS011;60968;37.490;-122.288;2023-05-10T16:14:13;7.43;;;1.63;;
29466;SDS011;60968;37.490;-122.288;2023-05-10T16:17:15;10.63;;;1.50;;
29466;SDS011;60968;37.490;-122.288;2023-05-10T16:20:15;5.73;;;1.80;;
29466;SDS011;60968;37.490;-122.288;2023-05-10T16:23:16;9.00;;;1.30;;
29466;SDS011;60968;37.490;-122.288;2023-05-10T16:26:17;3.83;;;1.20;;
29466;SDS011;60968;37.490;-122.288;2023-05-10T16:29:18;7.67;;;1.10;;
29466;SDS011;60968;37.490;-122.288;2023-05-10T16:32:19;7.47;;;1.13;;
29466;SDS011;60968;37.490;-122.288;2023-05-10T16:35:20;4.87;;;1.13;;
29466;SDS011;60968;37.490;-122.288;2023-05-10T16:38:22;3.13;;;0.80;;
29466;SDS011;60968;37.490;-122.288;2023-05-10T16:41:23;5.60;;;0.90;;
29466;SDS011;60968;37.490;-122.288;2023-05-10T16:44:24;3.57;;;1.00;;
29466;SDS011;60968;37.490;-122.288;2023-05-10T16:47:24;6.93;;;1.10;;
29466;SDS011;60968;37.490;-122.288;2023-05-10T16:50:25;5.80;;;1.17;;
29466;SDS011;60968;37.490;-122.288;2023-05-10T16:53:27;4.67;;;1.00;;
29466;SDS011;60968;37.490;-122.288;2023-05-10T16:56:28;6.50;;;1.00;;
29466;SDS011;60968;37.490;-122.288;2023-05-10T16:59:29;7.53;;;1.80;;
29466;SDS011;60968;37.490;-122.288;2023-05-10T17:02:31;4.43;;;1.20;;
29466;SDS011;60968;37.490;-122.288;2023-05-10T17:05:34;3.87;;;1.23;;
29466;SDS011;60968;37.490;-122.288;2023-05-10T17:08:35;2.83;;;1.00;;
29466;SDS011;60968;37.490;-122.288;2023-05-10T17:11:36;5.53;;;1.33;;
29466;SDS011;60968;37.490;-122.288;2023-05-10T17:14:36;6.83;;;1.13;;
29466;SDS011;60968;37.490;-122.288;2023-05-10T17:17:37;8.30;;;1.30;;
29466;SDS011;60968;37.490;-122.288;2023-05-10T17:20:38;7.43;;;1.50;;
29466;SDS011;60968;37.490;-122.288;2023-05-10T17:23:39;5.93;;;1.67;;
29466;SDS011;60968;37.490;-122.288;2023-05-10T17:26:40;4.77;;;1.13;;
29466;SDS011;60968;37.490;-122.288;2023-05-10T17:29:43;6.23;;;1.10;;
29466;SDS011;60968;37.490;-122.288;2023-05-10T17:32:44;6.73;;;1.30;;
29466;SDS011;60968;37.490;-122.288;2023-05-10T17:35:45;6.43;;;1.20;;
29466;SDS011;60968;37.490;-122.288;2023-05-10T17:38:46;11.40;;;1.60;;
29466;SDS011;60968;37.490;-122.288;2023-05-10T17:41:47;5.63;;;1.10;;
29466;SDS011;60968;37.490;-122.288;2023-05-10T17:44:48;8.20;;;1.33;;
29466;SDS011;60968;37.490;-122.288;2023-05-10T17:47:49;7.43;;;1.43;;
29466;SDS011;60968;37.490;-122.288;2023-05-10T17:50:50;7.37;;;1.60;;
29466;SDS011;60968;37.490;-122.288;2023-05-10T17:53:51;9.97;;;1.60;;
29466;SDS011;60968;37.490;-122.288;2023-05-10T17:56:52;3.07;;;1.10;;